sensor_id;sensor_type;location;lat;lon;timestamp;pressure;altitude;pressure_sealevel;temperature;humidity
46724;BME280;32463;48.298;11.620;2024-02-15T00:02:07;96813.94;;;7.37;100.00
46724;BME280;32463;48.298;11.620;2024-02-15T00:04:34;96809.34;;;7.41;100.00
46724;BME280;32463;48.298;11.620;2024-02-15T00:07:01;96819.28;;;7.46;100.00
46724;BME280;32463;48.298;11.620;2024-02-15T00:09:27;96811.78;;;7.42;100.00
46724;BME280;32463;48.298;11.620;2024-02-15T00:11:54;96817.47;;;7.36;100.00
46724;BME280;32463;48.298;11.620;2024-02-15T00:14:20;96802.50;;;7.30;100.00
46724;BME280;32463;48.298;11.620;2024-02-15T00:16:47;96809.56;;;7.28;100.00
46724;BME280;32463;48.298;11.620;2024-02-15T00:19:13;96807.41;;;7.33;100.00
46724;BME280;32463;48.298;11.620;2024-02-15T00:21:45;96802.75;;;7.27;100.00
46724;BME280;32463;48.298;11.620;2024-02-15T00:24:12;96800.63;;;7.32;100.00
46724;BME280;32463;48.298;11.620;2024-02-15T00:26:40;96803.06;;;7.34;100.00
46724;BME280;32463;48.298;11.620;2024-02-15T00:29:07;96805.78;;;7.32;100.00
46724;BME280;32463;48.298;11.620;2024-02-15T00:31:33;96807.66;;;7.30;100.00
46724;BME280;32463;48.298;11.620;2024-02-15T00:34:01;96818.50;;;7.24;100.00
46724;BME280;32463;48.298;11.620;2024-02-15T00:36:29;96818.28;;;7.16;100.00
46724;BME280;32463;48.298;11.620;2024-02-15T00:38:55;96821.13;;;7.13;100.00
46724;BME280;32463;48.298;11.620;2024-02-15T00:41:22;96812.94;;;7.08;100.00
46724;BME280;32463;48.298;11.620;2024-02-15T00:43:48;96820.66;;;7.08;100.00
46724;BME280;32463;48.298;11.620;2024-02-15T00:46:18;96822.81;;;7.03;100.00
46724;BME280;32463;48.298;11.620;2024-02-15T00:48:44;96821.84;;;7.04;100.00
46724;BME280;32463;48.298;11.620;2024-02-15T00:51:11;96823.50;;;7.05;100.00
46724;BME280;32463;48.298;11.620;2024-02-15T00:53:38;96813.88;;;7.07;100.00
46724;BME280;32463;48.298;11.620;2024-02-15T00:56:05;96819.97;;;7.06;100.00
46724;BME280;32463;48.298;11.620;2024-02-15T00:58:32;96812.00;;;7.09;100.00
46724;BME280;32463;48.298;11.620;2024-02-15T01:00:59;96817.03;;;7.10;100.00
46724;BME280;32463;48.298;11.620;2024-02-15T01:03:26;96811.28;;;7.07;100.00
46724;BME280;32463;48.298;11.620;2024-02-15T01:05:52;96818.09;;;7.08;100.00
46724;BME280;32463;48.298;11.620;2024-02-15T01:08:19;96828.97;;;7.12;100.00
46724;BME280;32463;48.298;11.620;2024-02-15T01:10:46;96816.69;;;7.04;100.00
46724;BME280;32463;48.298;11.620;2024-02-15T01:13:16;96812.25;;;7.06;100.00
46724;BME280;32463;48.298;11.620;2024-02-15T01:15:42;96816.56;;;7.05;100.00
46724;BME280;32463;48.298;11.620;2024-02-15T01:18:09;96812.25;;;7.06;100.00
46724;BME280;32463;48.298;11.620;2024-02-15T01:20:36;96816.22;;;7.10;100.00
46724;BME280;32463;48.298;11.620;2024-02-15T01:23:03;96819.22;;;7.15;100.00
46724;BME280;32463;48.298;11.620;2024-02-15T01:25:30;96815.47;;;7.19;100.00
46724;BME280;32463;48.298;11.620;2024-02-15T01:27:56;96814.88;;;7.16;100.00
46724;BME280;32463;48.298;11.620;2024-02-15T01:30:23;96814.06;;;7.15;100.00
46724;BME280;32463;48.298;11.620;2024-02-15T01:32:49;96806.13;;;7.07;100.00
46724;BME280;32463;48.298;11.620;2024-02-15T01:35:16;96812.06;;;6.98;100.00
46724;BME280;32463;48.298;11.620;2024-02-15T01:37:42;96808.84;;;6.85;100.00
46724;BME280;32463;48.298;11.620;2024-02-15T01:40:09;96810.50;;;6.74;100.00
46724;BME280;32463;48.298;11.620;2024-02-15T01:42:39;96806.09;;;6.65;100.00
46724;BME280;32463;48.298;11.620;2024-02-15T01:45:06;96803.41;;;6.67;100.00
46724;BME280;32463;48.298;11.620;2024-02-15T01:47:32;96794.75;;;6.68;100.00
46724;BME280;32463;48.298;11.620;2024-02-15T01:49:59;96795.34;;;6.60;100.00
46724;BME280;32463;48.298;11.620;2024-02-15T01:52:26;96800.53;;;6.49;100.00
46724;BME280;32463;48.298;11.620;2024-02-15T01:54:53;96798.31;;;6.45;100.00
46724;BME280;32463;48.298;11.620;2024-02-15T01:57:20;96796.50;;;6.35;100.00
46724;BME280;32463;48.298;11.620;2024-02-15T01:59:50;96805.75;;;6.27;100.00
46724;BME280;32463;48.298;11.620;2024-02-15T02:02:18;96795.44;;;6.27;100.00
46724;BME280;32463;48.298;11.620;2024-02-15T02:04:46;96800.34;;;6.30;100.00
46724;BME280;32463;48.298;11.620;2024-02-15T02:07:13;96790.16;;;6.39;100.00
46724;BME280;32463;48.298;11.620;2024-02-15T02:09:40;96791.88;;;6.50;100.00
46724;BME280;32463;48.298;11.620;2024-02-15T02:12:07;96783.53;;;6.58;100.00
46724;BME280;32463;48.298;11.620;2024-02-15T02:14:34;96781.97;;;6.66;100.00
46724;BME280;32463;48.298;11.620;2024-02-15T02:17:13;96791.53;;;6.75;100.00
46724;BME280;32463;48.298;11.620;2024-02-15T02:19:41;96788.47;;;6.82;100.00
46724;BME280;32463;48.298;11.620;2024-02-15T02:22:09;96794.31;;;6.84;100.00
46724;BME280;32463;48.298;11.620;2024-02-15T02:24:44;;;;6.86;
46724;BME280;32463;48.298;11.620;2024-02-15T02:27:17;96792.44;;;6.86;100.00
46724;BME280;32463;48.298;11.620;2024-02-15T02:29:44;96791.03;;;6.82;100.00
46724;BME280;32463;48.298;11.620;2024-02-15T02:32:11;96789.41;;;6.81;100.00
46724;BME280;32463;48.298;11.620;2024-02-15T02:34:38;96785.19;;;6.80;100.00
46724;BME280;32463;48.298;11.620;2024-02-15T02:37:06;96785.88;;;6.82;100.00
46724;BME280;32463;48.298;11.620;2024-02-15T02:39:34;96785.88;;;6.82;100.00
46724;BME280;32463;48.298;11.620;2024-02-15T02:42:01;96785.06;;;6.81;100.00
46724;BME280;32463;48.298;11.620;2024-02-15T02:44:27;96777.22;;;6.83;100.00
46724;BME280;32463;48.298;11.620;2024-02-15T02:46:54;96787.97;;;6.88;100.00
46724;BME280;32463;48.298;11.620;2024-02-15T02:49:20;96789.72;;;6.87;100.00
46724;BME280;32463;48.298;11.620;2024-02-15T02:51:47;96778.84;;;6.84;100.00
46724;BME280;32463;48.298;11.620;2024-02-15T02:54:13;96775.69;;;6.80;100.00
46724;BME280;32463;48.298;11.620;2024-02-15T02:56:40;96782.63;;;6.80;100.00
46724;BME280;32463;48.298;11.620;2024-02-15T02:59:09;96778.53;;;6.77;100.00
46724;BME280;32463;48.298;11.620;2024-02-15T03:01:35;96783.81;;;6.75;100.00
46724;BME280;32463;48.298;11.620;2024-02-15T03:04:02;96789.88;;;6.74;100.00
46724;BME280;32463;48.298;11.620;2024-02-15T03:06:28;96775.44;;;6.62;100.00
46724;BME280;32463;48.298;11.620;2024-02-15T03:08:55;96772.75;;;6.64;100.00
46724;BME280;32463;48.298;11.620;2024-02-15T03:11:23;96781.75;;;6.69;100.00
46724;BME280;32463;48.298;11.620;2024-02-15T03:13:49;96778.97;;;6.61;100.00
46724;BME280;32463;48.298;11.620;2024-02-15T03:16:16;96776.16;;;6.53;100.00
46724;BME280;32463;48.298;11.620;2024-02-15T03:18:42;96779.44;;;6.55;100.00
46724;BME280;32463;48.298;11.620;2024-02-15T03:21:09;96782.72;;;6.57;100.00
46724;BME280;32463;48.298;11.620;2024-02-15T03:23:39;96782.47;;;6.60;100.00
46724;BME280;32463;48.298;11.620;2024-02-15T03:26:08;96786.00;;;6.59;100.00
46724;BME280;32463;48.298;11.620;2024-02-15T03:28:34;96783.88;;;6.64;100.00
46724;BME280;32463;48.298;11.620;2024-02-15T03:31:02;96784.44;;;6.68;100.00
46724;BME280;32463;48.298;11.620;2024-02-15T03:33:28;96784.75;;;6.74;100.00
46724;BME280;32463;48.298;11.620;2024-02-15T03:35:59;96783.38;;;6.70;100.00
46724;BME280;32463;48.298;11.620;2024-02-15T03:38:26;96790.16;;;6.71;100.00
46724;BME280;32463;48.298;11.620;2024-02-15T03:40:55;96795.56;;;6.68;100.00
46724;BME280;32463;48.298;11.620;2024-02-15T03:43:21;96787.13;;;6.66;100.00
46724;BME280;32463;48.298;11.620;2024-02-15T03:45:49;96783.28;;;6.61;100.00
46724;BME280;32463;48.298;11.620;2024-02-15T03:48:16;96782.22;;;6.63;100.00
46724;BME280;32463;48.298;11.620;2024-02-15T03:50:43;96778.47;;;6.67;100.00
46724;BME280;32463;48.298;11.620;2024-02-15T03:53:10;96781.16;;;6.66;100.00
46724;BME280;32463;48.298;11.620;2024-02-15T03:55:37;96773.31;;;6.67;100.00
46724;BME280;32463;48.298;11.620;2024-02-15T03:58:04;96775.44;;;6.62;100.00
46724;BME280;32463;48.298;11.620;2024-02-15T04:00:30;96783.88;;;6.64;100.00
46724;BME280;32463;48.298;11.620;2024-02-15T04:02:57;96783.19;;;6.83;100.00
46724;BME280;32463;48.298;11.620;2024-02-15T04:05:23;96785.41;;;6.88;100.00
46724;BME280;32463;48.298;11.620;2024-02-15T04:07:49;96789.16;;;6.84;100.00
46724;BME280;32463;48.298;11.620;2024-02-15T04:10:17;96791.81;;;6.72;100.00
46724;BME280;32463;48.298;11.620;2024-02-15T04:12:44;96788.19;;;6.64;100.00
46724;BME280;32463;48.298;11.620;2024-02-15T04:15:11;96787.50;;;6.62;100.00
46724;BME280;32463;48.298;11.620;2024-02-15T04:17:41;96788.78;;;6.67;100.00
46724;BME280;32463;48.298;11.620;2024-02-15T04:20:10;96785.75;;;6.62;100.00
46724;BME280;32463;48.298;11.620;2024-02-15T04:22:37;96784.09;;;6.61;100.00
46724;BME280;32463;48.298;11.620;2024-02-15T04:25:06;96782.47;;;6.60;100.00
46724;BME280;32463;48.298;11.620;2024-02-15T04:27:35;96788.84;;;6.45;100.00
46724;BME280;32463;48.298;11.620;2024-02-15T04:30:02;96786.88;;;6.37;100.00
46724;BME280;32463;48.298;11.620;2024-02-15T04:32:30;96789.97;;;6.20;100.00
46724;BME280;32463;48.298;11.620;2024-02-15T04:34:59;96780.88;;;6.05;100.00
46724;BME280;32463;48.298;11.620;2024-02-15T04:37:26;96786.38;;;5.89;100.00
46724;BME280;32463;48.298;11.620;2024-02-15T04:39:54;96784.84;;;5.75;100.00
46724;BME280;32463;48.298;11.620;2024-02-15T04:42:21;96788.81;;;5.57;100.00
46724;BME280;32463;48.298;11.620;2024-02-15T04:44:52;96797.56;;;5.55;100.00
46724;BME280;32463;48.298;11.620;2024-02-15T04:47:19;96792.34;;;5.45;100.00
46724;BME280;32463;48.298;11.620;2024-02-15T04:49:46;96791.50;;;5.33;100.00
46724;BME280;32463;48.298;11.620;2024-02-15T04:52:12;96789.25;;;5.29;100.00
46724;BME280;32463;48.298;11.620;2024-02-15T04:54:39;96784.81;;;5.20;100.00
46724;BME280;32463;48.298;11.620;2024-02-15T04:57:06;96794.03;;;5.11;100.00
46724;BME280;32463;48.298;11.620;2024-02-15T04:59:33;96789.13;;;5.08;100.00
46724;BME280;32463;48.298;11.620;2024-02-15T05:02:00;96804.75;;;5.05;100.00
46724;BME280;32463;48.298;11.620;2024-02-15T05:04:27;96799.50;;;5.06;100.00
46724;BME280;32463;48.298;11.620;2024-02-15T05:06:53;96796.13;;;5.06;100.00
46724;BME280;32463;48.298;11.620;2024-02-15T05:09:21;96787.25;;;5.10;100.00
46724;BME280;32463;48.298;11.620;2024-02-15T05:11:48;96790.16;;;5.05;100.00
46724;BME280;32463;48.298;11.620;2024-02-15T05:14:15;96783.00;;;4.98;100.00
46724;BME280;32463;48.298;11.620;2024-02-15T05:16:45;96782.06;;;4.88;100.00
46724;BME280;32463;48.298;11.620;2024-02-15T05:19:14;96787.19;;;4.88;100.00
46724;BME280;32463;48.298;11.620;2024-02-15T05:21:40;96788.59;;;4.92;100.00
46724;BME280;32463;48.298;11.620;2024-02-15T05:24:11;96781.16;;;5.00;100.00
46724;BME280;32463;48.298;11.620;2024-02-15T05:26:39;96781.47;;;4.95;100.00
46724;BME280;32463;48.298;11.620;2024-02-15T05:29:08;96788.84;;;4.89;100.00
46724;BME280;32463;48.298;11.620;2024-02-15T05:31:35;96781.53;;;4.71;100.00
46724;BME280;32463;48.298;11.620;2024-02-15T05:34:04;96788.63;;;4.68;100.00
46724;BME280;32463;48.298;11.620;2024-02-15T05:36:30;96782.66;;;4.56;100.00
46724;BME280;32463;48.298;11.620;2024-02-15T05:38:57;96784.94;;;4.48;100.00
46724;BME280;32463;48.298;11.620;2024-02-15T05:41:23;96790.72;;;4.39;100.00
46724;BME280;32463;48.298;11.620;2024-02-15T05:43:50;96789.53;;;4.32;100.00
46724;BME280;32463;48.298;11.620;2024-02-15T05:46:18;96790.56;;;4.29;100.00
46724;BME280;32463;48.298;11.620;2024-02-15T05:48:46;96786.53;;;4.14;100.00
46724;BME280;32463;48.298;11.620;2024-02-15T05:51:14;96784.06;;;4.13;100.00
46724;BME280;32463;48.298;11.620;2024-02-15T05:53:41;96792.50;;;4.02;100.00
46724;BME280;32463;48.298;11.620;2024-02-15T05:56:09;96793.53;;;3.99;100.00
46724;BME280;32463;48.298;11.620;2024-02-15T05:58:36;96789.66;;;3.94;100.00
46724;BME280;32463;48.298;11.620;2024-02-15T06:01:04;96789.66;;;3.94;100.00
46724;BME280;32463;48.298;11.620;2024-02-15T06:03:33;96782.78;;;3.94;100.00
46724;BME280;32463;48.298;11.620;2024-02-15T06:06:03;96789.13;;;4.01;100.00
46724;BME280;32463;48.298;11.620;2024-02-15T06:08:35;96790.34;;;4.09;100.00
46724;BME280;32463;48.298;11.620;2024-02-15T06:11:04;96790.63;;;4.17;100.00
46724;BME280;32463;48.298;11.620;2024-02-15T06:13:32;96786.19;;;4.19;100.00
46724;BME280;32463;48.298;11.620;2024-02-15T06:15:58;96788.66;;;4.20;100.00
46724;BME280;32463;48.298;11.620;2024-02-15T06:18:26;96783.91;;;4.27;100.00
46724;BME280;32463;48.298;11.620;2024-02-15T06:20:58;96781.56;;;4.24;100.00
46724;BME280;32463;48.298;11.620;2024-02-15T06:23:24;96786.09;;;4.20;100.00
46724;BME280;32463;48.298;11.620;2024-02-15T06:25:53;96789.19;;;4.13;100.00
46724;BME280;32463;48.298;11.620;2024-02-15T06:28:20;96795.69;;;4.29;100.00
46724;BME280;32463;48.298;11.620;2024-02-15T06:31:01;96796.06;;;4.36;100.00
46724;BME280;32463;48.298;11.620;2024-02-15T06:33:45;96793.56;;;4.47;100.00
46724;BME280;32463;48.298;11.620;2024-02-15T06:36:28;96805.78;;;4.67;100.00
46724;BME280;32463;48.298;11.620;2024-02-15T06:39:12;96805.63;;;4.82;100.00
46724;BME280;32463;48.298;11.620;2024-02-15T06:41:56;96808.91;;;4.95;100.00
46724;BME280;32463;48.298;11.620;2024-02-15T06:44:22;96808.84;;;5.07;100.00
46724;BME280;32463;48.298;11.620;2024-02-15T06:46:50;96805.38;;;5.20;100.00
46724;BME280;32463;48.298;11.620;2024-02-15T06:49:17;96805.03;;;5.35;100.00
46724;BME280;32463;48.298;11.620;2024-02-15T06:51:47;96811.84;;;5.48;100.00
46724;BME280;32463;48.298;11.620;2024-02-15T06:54:14;96812.31;;;5.64;100.00
46724;BME280;32463;48.298;11.620;2024-02-15T06:56:41;96807.19;;;5.75;100.00
46724;BME280;32463;48.298;11.620;2024-02-15T06:59:09;96799.94;;;5.91;100.00
46724;BME280;32463;48.298;11.620;2024-02-15T07:01:39;96803.88;;;5.84;100.00
46724;BME280;32463;48.298;11.620;2024-02-15T07:04:05;96804.28;;;5.91;100.00
46724;BME280;32463;48.298;11.620;2024-02-15T07:06:32;96807.91;;;5.99;100.00
46724;BME280;32463;48.298;11.620;2024-02-15T07:09:00;96811.28;;;6.11;100.00
46724;BME280;32463;48.298;11.620;2024-02-15T07:11:28;96810.44;;;6.22;100.00
46724;BME280;32463;48.298;11.620;2024-02-15T07:13:55;96809.47;;;6.34;100.00
46724;BME280;32463;48.298;11.620;2024-02-15T07:16:22;96804.56;;;6.31;100.00
46724;BME280;32463;48.298;11.620;2024-02-15T07:18:48;96795.91;;;6.32;100.00
46724;BME280;32463;48.298;11.620;2024-02-15T07:21:15;96801.94;;;6.42;100.00
46724;BME280;32463;48.298;11.620;2024-02-15T07:23:42;96806.16;;;6.43;100.00
46724;BME280;32463;48.298;11.620;2024-02-15T07:26:08;96799.13;;;6.45;100.00
46724;BME280;32463;48.298;11.620;2024-02-15T07:28:37;96796.78;;;6.53;100.00
46724;BME280;32463;48.298;11.620;2024-02-15T07:31:04;96804.13;;;6.58;100.00
46724;BME280;32463;48.298;11.620;2024-02-15T07:33:31;96794.41;;;6.61;100.00
46724;BME280;32463;48.298;11.620;2024-02-15T07:36:00;96784.94;;;6.62;100.00
46724;BME280;32463;48.298;11.620;2024-02-15T07:38:27;96795.72;;;6.56;100.00
46724;BME280;32463;48.298;11.620;2024-02-15T07:40:55;96794.56;;;6.81;100.00
46724;BME280;32463;48.298;11.620;2024-02-15T07:43:21;96793.38;;;7.05;100.00
46724;BME280;32463;48.298;11.620;2024-02-15T07:45:48;96797.59;;;7.27;100.00
46724;BME280;32463;48.298;11.620;2024-02-15T07:48:15;96794.53;;;7.33;100.00
46724;BME280;32463;48.298;11.620;2024-02-15T07:50:41;96788.59;;;7.42;100.00
46724;BME280;32463;48.298;11.620;2024-02-15T07:53:10;96791.47;;;7.49;100.00
46724;BME280;32463;48.298;11.620;2024-02-15T07:55:37;96783.53;;;7.62;100.00
46724;BME280;32463;48.298;11.620;2024-02-15T07:58:04;96785.06;;;7.74;100.00
46724;BME280;32463;48.298;11.620;2024-02-15T08:00:31;96783.66;;;7.60;100.00
46724;BME280;32463;48.298;11.620;2024-02-15T08:02:58;96784.31;;;7.53;100.00
46724;BME280;32463;48.298;11.620;2024-02-15T08:05:24;96787.44;;;7.56;100.00
46724;BME280;32463;48.298;11.620;2024-02-15T08:07:51;96786.81;;;7.64;100.00
46724;BME280;32463;48.298;11.620;2024-02-15T08:10:23;96776.38;;;7.75;100.00
46724;BME280;32463;48.298;11.620;2024-02-15T08:12:49;96781.88;;;7.91;100.00
46724;BME280;32463;48.298;11.620;2024-02-15T08:15:18;96779.19;;;8.02;100.00
46724;BME280;32463;48.298;11.620;2024-02-15T08:17:45;96773.09;;;8.13;100.00
46724;BME280;32463;48.298;11.620;2024-02-15T08:20:13;96773.81;;;8.25;100.00
46724;BME280;32463;48.298;11.620;2024-02-15T08:22:40;96765.16;;;8.45;100.00
46724;BME280;32463;48.298;11.620;2024-02-15T08:25:10;96764.22;;;8.46;100.00
46724;BME280;32463;48.298;11.620;2024-02-15T08:27:43;96766.00;;;8.55;100.00
46724;BME280;32463;48.298;11.620;2024-02-15T08:30:12;96761.63;;;8.65;100.00
46724;BME280;32463;48.298;11.620;2024-02-15T08:32:40;96756.72;;;8.82;100.00
46724;BME280;32463;48.298;11.620;2024-02-15T08:35:08;96757.25;;;8.95;100.00
46724;BME280;32463;48.298;11.620;2024-02-15T08:37:35;96759.16;;;9.02;100.00
46724;BME280;32463;48.298;11.620;2024-02-15T08:40:07;96752.06;;;9.14;100.00
46724;BME280;32463;48.298;11.620;2024-02-15T08:42:40;96744.78;;;9.37;100.00
46724;BME280;32463;48.298;11.620;2024-02-15T08:45:07;96742.13;;;9.56;100.00
46724;BME280;32463;48.298;11.620;2024-02-15T08:47:39;96746.59;;;9.64;100.00
46724;BME280;32463;48.298;11.620;2024-02-15T08:50:07;96747.41;;;9.92;100.00
46724;BME280;32463;48.298;11.620;2024-02-15T08:52:35;96743.72;;;10.22;100.00
46724;BME280;32463;48.298;11.620;2024-02-15T08:55:07;96741.38;;;10.46;100.00
46724;BME280;32463;48.298;11.620;2024-02-15T08:57:35;96737.72;;;10.74;100.00
46724;BME280;32463;48.298;11.620;2024-02-15T09:00:05;96736.63;;;10.95;100.00
46724;BME280;32463;48.298;11.620;2024-02-15T09:02:41;96742.34;;;11.24;100.00
46724;BME280;32463;48.298;11.620;2024-02-15T09:05:08;96743.28;;;11.23;100.00
46724;BME280;32463;48.298;11.620;2024-02-15T09:07:35;96741.16;;;11.19;100.00
46724;BME280;32463;48.298;11.620;2024-02-15T09:10:03;96739.88;;;11.48;100.00
46724;BME280;32463;48.298;11.620;2024-02-15T09:12:32;96742.28;;;11.76;100.00
46724;BME280;32463;48.298;11.620;2024-02-15T09:14:58;96743.84;;;11.95;99.71
46724;BME280;32463;48.298;11.620;2024-02-15T09:17:25;96733.84;;;12.24;97.49
46724;BME280;32463;48.298;11.620;2024-02-15T09:19:52;96730.19;;;12.67;96.38
46724;BME280;32463;48.298;11.620;2024-02-15T09:22:20;96724.66;;;12.95;91.57
46724;BME280;32463;48.298;11.620;2024-02-15T09:24:47;96722.69;;;13.29;88.20
46724;BME280;32463;48.298;11.620;2024-02-15T09:27:13;96712.03;;;13.55;84.51
46724;BME280;32463;48.298;11.620;2024-02-15T09:29:40;96723.00;;;13.42;82.95
46724;BME280;32463;48.298;11.620;2024-02-15T09:32:07;96719.03;;;13.63;83.75
46724;BME280;32463;48.298;11.620;2024-02-15T09:34:34;96715.31;;;13.96;81.43
46724;BME280;32463;48.298;11.620;2024-02-15T09:37:01;96714.69;;;13.86;78.63
46724;BME280;32463;48.298;11.620;2024-02-15T09:39:28;96714.69;;;13.86;79.81
46724;BME280;32463;48.298;11.620;2024-02-15T09:41:55;96705.03;;;14.03;77.88
46724;BME280;32463;48.298;11.620;2024-02-15T09:44:24;96705.84;;;14.03;76.65
46724;BME280;32463;48.298;11.620;2024-02-15T09:47:03;96698.97;;;14.64;72.97
46724;BME280;32463;48.298;11.620;2024-02-15T09:49:38;96700.22;;;14.14;74.64
46724;BME280;32463;48.298;11.620;2024-02-15T09:52:09;96694.19;;;14.91;72.70
46724;BME280;32463;48.298;11.620;2024-02-15T09:54:40;96693.81;;;15.61;68.74
46724;BME280;32463;48.298;11.620;2024-02-15T09:57:08;96687.00;;;16.10;66.35
46724;BME280;32463;48.298;11.620;2024-02-15T09:59:35;96687.19;;;15.94;64.45
46724;BME280;32463;48.298;11.620;2024-02-15T10:02:02;96682.19;;;16.71;63.03
46724;BME280;32463;48.298;11.620;2024-02-15T10:04:29;96682.72;;;17.16;59.51
46724;BME280;32463;48.298;11.620;2024-02-15T10:06:55;96675.16;;;17.28;58.71
46724;BME280;32463;48.298;11.620;2024-02-15T10:09:32;96677.50;;;17.85;56.68
46724;BME280;32463;48.298;11.620;2024-02-15T10:12:00;96671.31;;;17.99;56.62
46724;BME280;32463;48.298;11.620;2024-02-15T10:14:28;96674.75;;;18.06;54.81
46724;BME280;32463;48.298;11.620;2024-02-15T10:16:56;96669.06;;;18.70;53.16
46724;BME280;32463;48.298;11.620;2024-02-15T10:19:23;96658.75;;;19.15;52.20
46724;BME280;32463;48.298;11.620;2024-02-15T10:21:54;96663.97;;;19.55;52.51
46724;BME280;32463;48.298;11.620;2024-02-15T10:24:24;96659.16;;;19.90;50.57
46724;BME280;32463;48.298;11.620;2024-02-15T10:26:51;96668.22;;;20.07;49.88
46724;BME280;32463;48.298;11.620;2024-02-15T10:29:19;96658.56;;;20.39;48.57
46724;BME280;32463;48.298;11.620;2024-02-15T10:31:54;96652.66;;;20.37;49.01
46724;BME280;32463;48.298;11.620;2024-02-15T10:34:21;96652.53;;;20.57;49.01
46724;BME280;32463;48.298;11.620;2024-02-15T10:36:48;96643.03;;;20.80;48.02
46724;BME280;32463;48.298;11.620;2024-02-15T10:39:18;96646.63;;;20.30;48.78
46724;BME280;32463;48.298;11.620;2024-02-15T10:41:54;96636.84;;;20.37;49.38
46724;BME280;32463;48.298;11.620;2024-02-15T10:44:22;96638.16;;;20.84;46.94
46724;BME280;32463;48.298;11.620;2024-02-15T10:46:50;96632.28;;;20.57;46.39
46724;BME280;32463;48.298;11.620;2024-02-15T10:49:21;96627.22;;;20.80;47.01
46724;BME280;32463;48.298;11.620;2024-02-15T10:51:55;96619.91;;;21.32;45.47
46724;BME280;32463;48.298;11.620;2024-02-15T10:57:20;96616.50;;;21.25;45.17
46724;BME280;32463;48.298;11.620;2024-02-15T10:59:56;96615.75;;;20.12;46.63
46724;BME280;32463;48.298;11.620;2024-02-15T11:02:30;96610.50;;;20.93;46.32
46724;BME280;32463;48.298;11.620;2024-02-15T11:05:07;96597.22;;;21.79;44.62
46724;BME280;32463;48.298;11.620;2024-02-15T11:07:38;96599.00;;;22.57;42.74
46724;BME280;32463;48.298;11.620;2024-02-15T11:10:06;96592.91;;;22.68;42.39
46724;BME280;32463;48.298;11.620;2024-02-15T11:12:34;96589.59;;;22.96;41.79
46724;BME280;32463;48.298;11.620;2024-02-15T11:15:01;96583.91;;;23.63;40.18
46724;BME280;32463;48.298;11.620;2024-02-15T11:17:46;96574.81;;;24.27;39.10
46724;BME280;32463;48.298;11.620;2024-02-15T11:23:01;96565.69;;;23.14;40.34
46724;BME280;32463;48.298;11.620;2024-02-15T11:25:33;96575.59;;;22.84;40.28
46724;BME280;32463;48.298;11.620;2024-02-15T11:30:51;96557.75;;;23.78;38.92
46724;BME280;32463;48.298;11.620;2024-02-15T11:33:32;96554.63;;;23.53;39.07
46724;BME280;32463;48.298;11.620;2024-02-15T11:36:10;96551.41;;;24.07;38.38
46724;BME280;32463;48.298;11.620;2024-02-15T11:38:41;96547.50;;;24.27;37.71
46724;BME280;32463;48.298;11.620;2024-02-15T11:41:09;96545.81;;;23.92;37.67
46724;BME280;32463;48.298;11.620;2024-02-15T11:43:47;96534.94;;;24.05;38.10
46724;BME280;32463;48.298;11.620;2024-02-15T11:46:20;96535.78;;;23.94;38.95
46724;BME280;32463;48.298;11.620;2024-02-15T11:48:51;96536.25;;;23.63;38.84
46724;BME280;32463;48.298;11.620;2024-02-15T11:51:52;96528.59;;;22.86;40.01
46724;BME280;32463;48.298;11.620;2024-02-15T11:54:13;96523.91;;;23.28;40.59
46724;BME280;32463;48.298;11.620;2024-02-15T11:56:54;96512.97;;;23.25;38.62
46724;BME280;32463;48.298;11.620;2024-02-15T11:59:43;96515.22;;;22.69;39.63
46724;BME280;32463;48.298;11.620;2024-02-15T12:02:39;96509.97;;;22.93;40.53
46724;BME280;32463;48.298;11.620;2024-02-15T12:05:23;96509.19;;;23.32;39.13
46724;BME280;32463;48.298;11.620;2024-02-15T12:08:12;96505.84;;;23.25;40.14
46724;BME280;32463;48.298;11.620;2024-02-15T12:11:00;96504.25;;;23.93;39.33
46724;BME280;32463;48.298;11.620;2024-02-15T12:13:51;96499.25;;;24.41;39.46
46724;BME280;32463;48.298;11.620;2024-02-15T12:16:36;96497.19;;;23.53;39.83
46724;BME280;32463;48.298;11.620;2024-02-15T12:19:19;96499.34;;;24.30;39.02
46724;BME280;32463;48.298;11.620;2024-02-15T12:21:47;96486.59;;;23.41;40.23
46724;BME280;32463;48.298;11.620;2024-02-15T12:24:14;96488.75;;;23.56;40.28
46724;BME280;32463;48.298;11.620;2024-02-15T12:26:42;96482.59;;;23.39;40.33
46724;BME280;32463;48.298;11.620;2024-02-15T12:29:08;96484.75;;;23.54;39.70
46724;BME280;32463;48.298;11.620;2024-02-15T12:31:37;96481.19;;;23.08;39.78
46724;BME280;32463;48.298;11.620;2024-02-15T12:34:05;96484.19;;;23.00;40.80
46724;BME280;32463;48.298;11.620;2024-02-15T12:36:33;96473.38;;;23.53;39.95
46724;BME280;32463;48.298;11.620;2024-02-15T12:39:06;96472.28;;;22.62;41.23
46724;BME280;32463;48.298;11.620;2024-02-15T12:41:41;96470.88;;;22.48;41.70
46724;BME280;32463;48.298;11.620;2024-02-15T12:44:07;96466.94;;;23.09;41.73
46724;BME280;32463;48.298;11.620;2024-02-15T12:46:35;96469.06;;;22.83;40.12
46724;BME280;32463;48.298;11.620;2024-02-15T12:49:17;96459.06;;;22.86;40.38
46724;BME280;32463;48.298;11.620;2024-02-15T12:51:54;96445.00;;;23.25;39.81
46724;BME280;32463;48.298;11.620;2024-02-15T12:54:40;96454.84;;;23.41;39.12
46724;BME280;32463;48.298;11.620;2024-02-15T12:57:08;96455.81;;;22.72;40.75
46724;BME280;32463;48.298;11.620;2024-02-15T12:59:35;96449.97;;;22.35;41.57
46724;BME280;32463;48.298;11.620;2024-02-15T13:02:02;96455.59;;;22.15;41.64
46724;BME280;32463;48.298;11.620;2024-02-15T13:04:29;96453.53;;;22.17;41.59
46724;BME280;32463;48.298;11.620;2024-02-15T13:06:56;96443.88;;;22.46;42.12
46724;BME280;32463;48.298;11.620;2024-02-15T13:09:22;96442.41;;;22.50;40.88